ESSB/BMA METAR and TAF weather

Enter ICAO airport designator
Station Type Date Time Source
ESSB METAR 2020/09/20 15:20 UTC NOAA

ESSB 201520Z 26010KT 9999 BKN017 14/10 Q1017


Station Type Date Time Source
ESSB Decoded METAR 2020/09/20 15:20 UTC NOAA

Stockholm / Bromma, Sweden (ESSB) 59-21N 017-57E 14M
Sep 20, 2020 - 11:20 AM EDT / 2020.09.20 1520 UTC
Wind: from the W (260 degrees) at 12 MPH (10 KT):0
Visibility: greater than 7 mile(s):0
Sky conditions: mostly cloudy
Temperature: 57 F (14 C)
Dew Point: 50 F (10 C)
Relative Humidity: 76%
Pressure (altimeter): 30.03 in. Hg (1017 hPa)
ob: ESSB 201520Z 26010KT 9999 BKN017 14/10 Q1017
cycle: 15

Station Type Date Time Source
ESSB TAF 2017/03/27 06:35 UTC NOAA

TAF ESSB 270530Z 2706/2724 27008KT CAVOK
BECMG 2710/2713 29015G25KT

Example: see airport list